Alcains, Portugal
Current Conditions -  °F | °C
As of 4:00 AM on Tuesday 27 Jan 2015 (Local Time) from LPMR Reporting Station
Moderate Fog Moderate Fog  
Wind Chill: 39°   Ceiling: 200
Heat Index: 39°   Visibility: 0.31mi
Dew Point: 37°   Wind: 1mph
Humidity: 93%   Direction: NA
Pressure: 30.45"   Gusts: NA
Location:  39.92°N, 7.46°W
Report Text: LPMR 270500Z VRB01KT 0500 FG BKN002 04/03 Q1031
Loading
Personal Weather Stations






























Interactive Weather Map New forecast layout! Learn more

10-Day Weather Forecast

Advertisements
Track Severe Weather on mobile